createdAt,value
2022-08-29T00:00:18.127Z,54.95
2022-08-29T00:02:47.491Z,54.61
2022-08-29T00:05:14.350Z,54.99
2022-08-29T00:07:41.368Z,55.03
2022-08-29T00:10:07.974Z,55.29
2022-08-29T00:12:34.857Z,55.79
2022-08-29T00:15:05.034Z,54.16
2022-08-29T00:17:31.817Z,53.69
2022-08-29T00:20:01.062Z,55.44
2022-08-29T00:22:27.854Z,54.41
2022-08-29T00:24:54.643Z,54.10
2022-08-29T00:27:23.532Z,53.64
2022-08-29T00:29:50.512Z,53.95
2022-08-29T00:32:19.519Z,54.09
2022-08-29T00:34:46.150Z,53.25
2022-08-29T00:37:12.807Z,53.09
2022-08-29T00:39:40.252Z,52.63
2022-08-29T00:42:10.483Z,50.17
2022-08-29T00:44:37.249Z,50.68
2022-08-29T00:47:04.052Z,49.74
2022-08-29T00:49:30.907Z,48.99
2022-08-29T00:51:57.527Z,50.43
2022-08-29T00:57:08.322Z,50.20
2022-08-29T00:59:34.940Z,49.63
2022-08-29T01:02:01.795Z,48.99
2022-08-29T01:04:28.436Z,49.16
2022-08-29T01:06:55.663Z,50.34
2022-08-29T01:09:22.218Z,49.92
2022-08-29T01:11:50.536Z,50.36
2022-08-29T01:14:17.227Z,51.30
2022-08-29T01:16:46.662Z,51.87
2022-08-29T01:19:16.260Z,52.72
2022-08-29T01:21:43.117Z,51.61
2022-08-29T01:24:10.377Z,52.08
2022-08-29T01:26:37.396Z,52.81
2022-08-29T01:29:04.054Z,53.11
2022-08-29T01:31:37.818Z,52.40
2022-08-29T01:34:17.732Z,53.33
2022-08-29T01:36:44.445Z,52.13
2022-08-29T01:39:14.165Z,51.33
2022-08-29T01:41:41.238Z,50.66
2022-08-29T01:44:10.232Z,51.46
2022-08-29T01:46:36.822Z,52.71
2022-08-29T01:49:06.792Z,54.25
2022-08-29T01:51:35.912Z,54.55
2022-08-29T01:54:02.776Z,54.22
2022-08-29T01:56:29.256Z,54.33
2022-08-29T01:58:56.152Z,53.31
2022-08-29T02:01:23.523Z,53.28
2022-08-29T02:03:52.342Z,54.14
2022-08-29T02:06:19.143Z,54.18
2022-08-29T02:08:45.843Z,55.38
2022-08-29T02:11:13.702Z,55.23
2022-08-29T02:13:40.310Z,54.63
2022-08-29T02:16:06.990Z,55.56
2022-08-29T02:18:36.000Z,55.71
2022-08-29T02:21:02.798Z,54.79
2022-08-29T02:23:31.239Z,55.45
2022-08-29T02:25:58.170Z,55.26
2022-08-29T02:28:26.216Z,56.71
2022-08-29T02:30:56.328Z,56.91
2022-08-29T02:33:24.370Z,56.01
2022-08-29T02:35:51.569Z,56.03
2022-08-29T02:38:20.170Z,56.36
2022-08-29T02:40:47.046Z,56.19
2022-08-29T02:43:14.628Z,55.52
2022-08-29T02:45:43.016Z,54.40
2022-08-29T02:48:09.845Z,54.79
2022-08-29T02:50:37.405Z,55.59
2022-08-29T02:53:04.235Z,55.10
2022-08-29T02:55:31.601Z,55.69
2022-08-29T02:57:59.001Z,54.99
2022-08-29T03:00:25.636Z,54.91
2022-08-29T03:02:55.151Z,55.11
2022-08-29T03:05:24.231Z,55.64
2022-08-29T03:07:51.232Z,56.77
2022-08-29T03:10:18.034Z,57.20
2022-08-29T03:12:47.871Z,56.58
2022-08-29T03:15:14.665Z,56.42
2022-08-29T03:17:41.506Z,57.72
2022-08-29T03:20:09.148Z,57.55
2022-08-29T03:22:36.005Z,57.30
2022-08-29T03:25:02.610Z,56.59
2022-08-29T03:27:29.392Z,56.60
2022-08-29T03:29:56.201Z,58.13
2022-08-29T03:32:24.901Z,59.23
2022-08-29T03:34:53.825Z,59.60
2022-08-29T03:37:21.141Z,59.02
2022-08-29T03:39:47.821Z,59.27
2022-08-29T03:42:14.618Z,59.12
2022-08-29T03:44:42.016Z,59.15
2022-08-29T03:47:10.887Z,58.18
2022-08-29T03:49:37.760Z,56.90
2022-08-29T03:52:06.719Z,58.04
2022-08-29T03:54:33.535Z,58.58
2022-08-29T03:57:00.359Z,59.43
2022-08-29T03:59:27.173Z,59.63
2022-08-29T04:01:56.362Z,58.05
2022-08-29T04:04:23.162Z,58.22
2022-08-29T04:06:52.842Z,57.96
2022-08-29T04:09:21.844Z,58.78
2022-08-29T04:11:48.699Z,60.12
2022-08-29T04:14:15.581Z,59.14
2022-08-29T04:16:45.537Z,58.00
2022-08-29T04:19:12.906Z,57.96
2022-08-29T04:21:40.045Z,57.35
2022-08-29T04:24:08.179Z,58.13
2022-08-29T04:26:37.457Z,58.62
2022-08-29T04:29:04.423Z,58.11
2022-08-29T04:31:31.443Z,58.54
2022-08-29T04:33:58.383Z,58.63
2022-08-29T04:36:25.184Z,59.04
2022-08-29T04:38:51.887Z,58.13
2022-08-29T04:41:20.158Z,57.87
2022-08-29T04:43:47.538Z,56.62
2022-08-29T04:46:23.541Z,57.70
2022-08-29T04:48:51.666Z,59.54
2022-08-29T04:51:18.234Z,57.67
2022-08-29T04:53:45.914Z,57.44
2022-08-29T04:56:14.624Z,57.69
2022-08-29T04:58:43.557Z,58.16
2022-08-29T05:01:11.051Z,58.57
2022-08-29T05:03:39.881Z,58.96
2022-08-29T05:06:06.879Z,58.70
2022-08-29T05:08:33.857Z,59.42
2022-08-29T05:11:00.740Z,59.77
2022-08-29T05:13:27.659Z,60.60
2022-08-29T05:15:54.608Z,58.80
2022-08-29T05:18:23.605Z,59.94
2022-08-29T05:20:52.654Z,59.80
2022-08-29T05:26:34.876Z,54.11
2022-08-29T05:29:01.683Z,51.40
2022-08-29T05:31:28.395Z,50.82
2022-08-29T05:33:56.008Z,48.25
2022-08-29T05:36:28.715Z,47.90
2022-08-29T05:38:57.312Z,46.15
2022-08-29T05:41:24.548Z,44.04
2022-08-29T05:43:52.672Z,42.88
2022-08-29T05:46:21.772Z,42.00
2022-08-29T05:48:50.719Z,41.90
2022-08-29T05:51:17.990Z,40.66
2022-08-29T05:53:48.171Z,40.53
2022-08-29T05:56:16.440Z,39.56
2022-08-29T05:58:43.370Z,38.42
2022-08-29T06:01:12.515Z,37.14
2022-08-29T06:03:44.155Z,36.18
2022-08-29T06:06:12.566Z,35.50
2022-08-29T06:08:39.813Z,34.59
2022-08-29T06:11:08.104Z,34.84
2022-08-29T06:13:35.342Z,36.71
2022-08-29T06:16:02.291Z,38.01
2022-08-29T06:18:29.706Z,40.15
2022-08-29T06:21:02.058Z,41.64
2022-08-29T06:23:29.317Z,43.82
2022-08-29T06:25:58.352Z,44.02
2022-08-29T06:28:32.256Z,43.81
2022-08-29T06:30:59.036Z,44.89
2022-08-29T06:33:26.001Z,45.41
2022-08-29T06:35:54.408Z,47.15
2022-08-29T06:38:22.871Z,47.79
2022-08-29T06:40:56.982Z,44.96
2022-08-29T06:43:26.148Z,42.85
2022-08-29T06:45:53.563Z,41.36
2022-08-29T06:48:20.252Z,40.45
2022-08-29T06:50:48.038Z,39.74
2022-08-29T06:53:27.587Z,39.03
2022-08-29T06:55:59.548Z,38.56
2022-08-29T07:13:55.963Z,41.70
2022-08-29T07:16:27.802Z,40.08
2022-08-29T07:18:55.636Z,39.04
2022-08-29T07:21:23.201Z,38.73
2022-08-29T07:23:50.265Z,38.00
2022-08-29T07:26:16.992Z,38.68
2022-08-29T07:28:47.223Z,38.52
2022-08-29T07:31:14.528Z,38.45
2022-08-29T07:33:41.894Z,39.10
2022-08-29T07:36:08.843Z,38.97
2022-08-29T07:38:35.767Z,39.33
2022-08-29T07:41:02.689Z,39.19
2022-08-29T07:43:29.591Z,39.81
2022-08-29T07:45:56.730Z,39.52
2022-08-29T07:48:24.932Z,40.52
2022-08-29T07:50:51.749Z,40.77
2022-08-29T07:53:19.135Z,41.82
2022-08-29T07:55:46.066Z,43.18
2022-08-29T07:58:13.649Z,43.73
2022-08-29T08:00:40.533Z,42.81
2022-08-29T08:03:07.498Z,43.75
2022-08-29T08:05:34.645Z,44.99
2022-08-29T08:08:14.834Z,45.07
2022-08-29T08:10:46.844Z,44.28
2022-08-29T08:13:16.211Z,43.48
2022-08-29T08:15:43.817Z,44.78
2022-08-29T08:18:11.633Z,45.91
2022-08-29T08:20:38.545Z,45.60
2022-08-29T08:23:09.060Z,46.88
2022-08-29T08:25:38.294Z,46.40
2022-08-29T08:28:05.199Z,46.26
2022-08-29T08:30:35.693Z,45.62
2022-08-29T08:33:07.549Z,46.88
2022-08-29T08:35:34.902Z,46.92
2022-08-29T08:38:01.632Z,48.69
2022-08-29T08:40:29.081Z,47.47
2022-08-29T08:42:56.210Z,47.75
2022-08-29T08:45:23.195Z,48.97
2022-08-29T08:47:52.538Z,46.98
2022-08-29T08:50:21.563Z,46.12
2022-08-29T08:52:51.072Z,45.51
2022-08-29T08:55:17.645Z,46.75
2022-08-29T08:57:44.302Z,46.11
2022-08-29T09:00:15.006Z,47.36
2022-08-29T09:02:42.481Z,46.11
2022-08-29T09:05:12.893Z,47.03
2022-08-29T09:07:39.697Z,46.82
2022-08-29T09:10:08.453Z,47.09
2022-08-29T09:12:35.362Z,46.16
2022-08-29T09:15:01.983Z,46.10
2022-08-29T09:17:37.533Z,46.82
2022-08-29T09:20:04.441Z,45.61
2022-08-29T09:22:33.010Z,44.81
2022-08-29T09:28:02.764Z,47.18
2022-08-29T09:30:29.492Z,45.83
2022-08-29T09:32:57.730Z,46.13
2022-08-29T09:35:25.082Z,45.30
2022-08-29T09:37:51.854Z,45.10
2022-08-29T09:40:19.591Z,44.80
2022-08-29T09:42:47.925Z,45.47
2022-08-29T09:45:14.747Z,46.25
2022-08-29T09:47:41.700Z,45.95
2022-08-29T09:50:10.789Z,45.25
2022-08-29T09:52:37.417Z,44.13
2022-08-29T09:55:04.141Z,43.95
2022-08-29T09:57:31.209Z,44.41
2022-08-29T09:59:57.973Z,43.79
2022-08-29T10:02:26.444Z,44.43
2022-08-29T10:04:57.718Z,44.10
2022-08-29T10:10:23.644Z,44.68
2022-08-29T10:12:50.314Z,45.08
2022-08-29T10:15:33.680Z,44.56
2022-08-29T10:18:03.937Z,44.47
2022-08-29T10:20:30.579Z,43.40
2022-08-29T10:23:00.268Z,42.74
2022-08-29T10:25:28.975Z,43.30
2022-08-29T10:27:55.529Z,44.11
2022-08-29T10:30:22.278Z,43.90
2022-08-29T10:32:49.165Z,42.63
2022-08-29T10:35:17.868Z,43.58
2022-08-29T10:37:44.460Z,43.42
2022-08-29T10:40:11.620Z,42.64
2022-08-29T10:42:44.481Z,42.99
2022-08-29T10:45:11.030Z,44.36
2022-08-29T10:47:38.699Z,44.57
2022-08-29T10:50:07.804Z,42.94
2022-08-29T10:52:41.503Z,42.07
2022-08-29T10:55:09.675Z,41.71
2022-08-29T10:57:36.334Z,41.57
2022-08-29T11:03:15.899Z,41.58
2022-08-29T11:05:46.335Z,41.56
2022-08-29T11:08:19.498Z,40.88
2022-08-29T11:10:51.368Z,41.23
2022-08-29T11:13:18.627Z,41.88
2022-08-29T11:15:48.356Z,41.79
2022-08-29T11:18:22.293Z,42.31
2022-08-29T11:20:50.120Z,41.58
2022-08-29T11:26:09.700Z,40.40
2022-08-29T11:31:26.738Z,41.42
2022-08-29T11:33:54.943Z,41.89
2022-08-29T11:36:23.696Z,42.83
2022-08-29T11:38:51.456Z,41.30
2022-08-29T11:41:34.330Z,41.30
2022-08-29T11:44:01.989Z,39.66
2022-08-29T11:46:30.030Z,39.19
2022-08-29T11:48:59.807Z,39.25
2022-08-29T11:51:27.806Z,38.92
2022-08-29T11:53:54.515Z,39.08
2022-08-29T11:56:27.806Z,39.10
2022-08-29T11:58:56.974Z,38.91
2022-08-29T12:01:28.413Z,38.67
2022-08-29T12:03:56.611Z,39.12
2022-08-29T12:06:25.499Z,39.65
2022-08-29T12:09:00.691Z,37.68
2022-08-29T12:11:30.515Z,37.86
2022-08-29T12:13:57.433Z,38.41
2022-08-29T12:16:27.333Z,37.39
2022-08-29T12:19:01.522Z,37.48
2022-08-29T12:21:30.039Z,37.30
2022-08-29T12:23:57.062Z,36.99
2022-08-29T12:26:24.426Z,38.19
2022-08-29T12:28:51.356Z,38.33
2022-08-29T12:31:25.395Z,38.61
2022-08-29T12:33:53.262Z,38.08
2022-08-29T12:36:20.232Z,38.72
2022-08-29T12:38:49.007Z,38.73
2022-08-29T12:41:16.785Z,38.67
2022-08-29T12:43:44.347Z,37.23
2022-08-29T12:46:12.324Z,36.90
2022-08-29T12:48:40.243Z,36.28
2022-08-29T12:54:26.074Z,36.44
2022-08-29T12:59:55.871Z,37.27
2022-08-29T13:02:25.206Z,36.44
2022-08-29T13:04:55.604Z,36.89
2022-08-29T13:07:27.122Z,36.97
2022-08-29T13:09:55.664Z,36.87
2022-08-29T13:16:08.825Z,35.17
2022-08-29T13:18:59.819Z,35.62
2022-08-29T13:21:27.424Z,35.45
2022-08-29T13:24:05.519Z,34.54
2022-08-29T13:29:26.432Z,33.78
2022-08-29T13:31:55.248Z,33.44
2022-08-29T13:34:25.010Z,32.12
2022-08-29T13:36:56.285Z,32.01
2022-08-29T13:39:30.037Z,31.04
2022-08-29T13:42:02.180Z,30.46
2022-08-29T13:44:30.201Z,30.34
2022-08-29T13:47:01.202Z,29.96
2022-08-29T13:49:28.568Z,31.18
2022-08-29T13:52:00.003Z,32.78
2022-08-29T13:54:39.222Z,30.21
2022-08-29T13:57:18.144Z,30.48
2022-08-29T14:00:02.561Z,32.19
2022-08-29T14:02:33.498Z,33.67
2022-08-29T14:05:05.101Z,32.13
2022-08-29T14:07:33.036Z,31.14
2022-08-29T14:10:05.825Z,30.53
2022-08-29T14:12:38.735Z,30.19
2022-08-29T14:18:00.238Z,30.40
2022-08-29T14:20:27.988Z,30.22
2022-08-29T14:23:05.981Z,31.34
2022-08-29T14:25:36.325Z,30.03
2022-08-29T14:28:06.353Z,29.99
2022-08-29T14:30:41.651Z,31.85
2022-08-29T14:33:20.107Z,30.31
2022-08-29T14:35:47.655Z,30.35
2022-08-29T14:38:15.375Z,29.99
2022-08-29T14:40:50.078Z,30.70
2022-08-29T14:43:17.649Z,30.01
2022-08-29T14:48:50.764Z,29.94
2022-08-29T14:57:42.362Z,27.11
2022-08-29T15:00:13.624Z,25.53
2022-08-29T15:02:52.367Z,27.66
2022-08-29T15:08:15.844Z,28.20
2022-08-29T15:25:53.068Z,27.70
2022-08-29T15:28:22.884Z,26.68
2022-08-29T15:31:21.721Z,26.94
2022-08-29T15:36:53.067Z,26.10
2022-08-29T15:42:31.747Z,25.02
2022-08-29T15:45:15.646Z,24.96
2022-08-29T16:00:30.627Z,26.32
2022-08-29T16:05:50.488Z,29.03
2022-08-29T16:08:19.874Z,30.40
2022-08-29T16:10:51.416Z,31.89
2022-08-29T16:13:18.525Z,31.17
2022-08-29T16:15:48.241Z,31.69
2022-08-29T16:18:16.165Z,33.75
2022-08-29T16:20:43.283Z,33.62
2022-08-29T16:23:10.276Z,33.18
2022-08-29T16:25:37.280Z,33.31
2022-08-29T16:28:07.299Z,31.97
2022-08-29T16:30:34.224Z,32.92
2022-08-29T16:33:01.293Z,32.16
2022-08-29T16:35:28.540Z,31.81
2022-08-29T16:38:00.389Z,31.01
2022-08-29T16:40:33.786Z,29.86
2022-08-29T16:43:02.415Z,30.68
2022-08-29T16:45:29.763Z,30.52
2022-08-29T16:47:57.884Z,29.87
2022-08-29T16:50:30.261Z,30.09
2022-08-29T16:55:43.107Z,29.84
2022-08-29T16:58:21.099Z,29.69
2022-08-29T17:00:57.204Z,29.96
2022-08-29T17:06:27.971Z,29.88
2022-08-29T17:08:59.452Z,30.19
2022-08-29T17:11:29.140Z,30.99
2022-08-29T17:13:59.449Z,32.17
2022-08-29T17:16:26.457Z,31.81
2022-08-29T17:19:00.773Z,31.26
2022-08-29T17:24:44.155Z,31.56
2022-08-29T17:27:16.228Z,31.21
2022-08-29T17:39:05.139Z,31.81
2022-08-29T17:41:40.867Z,31.52
2022-08-29T17:44:11.855Z,31.97
2022-08-29T17:46:42.939Z,31.43
2022-08-29T17:49:15.770Z,30.98
2022-08-29T17:51:42.854Z,30.88
2022-08-29T17:54:10.802Z,30.96
2022-08-29T17:56:37.959Z,31.79
2022-08-29T17:59:11.690Z,31.49
2022-08-29T18:01:38.667Z,32.03
2022-08-29T18:04:07.120Z,31.87
2022-08-29T18:06:37.581Z,31.88
2022-08-29T18:09:07.234Z,32.02
2022-08-29T18:11:37.757Z,32.06
2022-08-29T18:14:07.959Z,31.69
2022-08-29T18:16:34.876Z,32.52
2022-08-29T18:19:15.114Z,32.68
2022-08-29T18:24:35.493Z,31.69
2022-08-29T18:27:02.284Z,32.13
2022-08-29T18:29:36.228Z,31.80
2022-08-29T18:32:16.687Z,31.01
2022-08-29T18:34:45.984Z,30.43
2022-08-29T18:37:12.586Z,30.08
2022-08-29T18:39:45.347Z,30.91
2022-08-29T18:42:24.997Z,30.90
2022-08-29T18:44:57.227Z,30.89
2022-08-29T18:47:24.032Z,30.91
2022-08-29T18:49:50.567Z,31.47
2022-08-29T18:52:17.464Z,31.16
2022-08-29T18:54:44.049Z,31.04
2022-08-29T18:57:12.247Z,31.02
2022-08-29T18:59:38.809Z,31.41
2022-08-29T19:02:05.357Z,31.12
2022-08-29T19:04:31.973Z,31.93
2022-08-29T19:06:58.428Z,32.84
2022-08-29T19:09:24.945Z,33.99
2022-08-29T19:11:51.602Z,34.18
2022-08-29T19:14:18.629Z,34.84
2022-08-29T19:16:45.217Z,34.88
2022-08-29T19:19:12.291Z,34.66
2022-08-29T19:21:40.115Z,35.03
2022-08-29T19:24:06.579Z,35.15
2022-08-29T19:26:33.142Z,34.90
2022-08-29T19:29:00.393Z,34.64
2022-08-29T19:31:26.949Z,34.77
2022-08-29T19:33:53.585Z,34.94
2022-08-29T19:36:20.131Z,34.93
2022-08-29T19:38:46.663Z,36.36
2022-08-29T19:41:14.637Z,35.97
2022-08-29T19:43:41.229Z,35.37
2022-08-29T19:46:07.912Z,36.56
2022-08-29T19:48:34.809Z,36.94
2022-08-29T19:51:01.960Z,36.98
2022-08-29T19:53:28.804Z,36.42
2022-08-29T19:55:55.456Z,35.57
2022-08-29T19:58:22.308Z,35.29
2022-08-29T20:00:53.442Z,36.03
2022-08-29T20:03:20.652Z,36.10
2022-08-29T20:05:47.368Z,34.91
2022-08-29T20:08:14.633Z,35.31
2022-08-29T20:10:41.265Z,34.87
2022-08-29T20:13:08.028Z,33.62
2022-08-29T20:15:34.556Z,34.36
2022-08-29T20:18:02.090Z,34.40
2022-08-29T20:20:30.344Z,34.99
2022-08-29T20:22:56.933Z,34.52
2022-08-29T20:25:23.752Z,34.52
2022-08-29T20:27:52.475Z,36.04
2022-08-29T20:30:19.283Z,36.50
2022-08-29T20:32:49.441Z,35.94
2022-08-29T20:35:16.158Z,34.87
2022-08-29T20:37:42.953Z,34.73
2022-08-29T20:40:09.592Z,34.57
2022-08-29T20:42:36.935Z,34.94
2022-08-29T20:45:03.626Z,35.06
2022-08-29T20:47:30.486Z,35.29
2022-08-29T20:49:56.967Z,36.20
2022-08-29T20:52:23.510Z,36.69
2022-08-29T20:54:50.251Z,36.05
2022-08-29T20:57:17.629Z,36.98
2022-08-29T21:00:00.650Z,37.05
2022-08-29T21:02:27.576Z,37.07
2022-08-29T21:04:54.165Z,37.25
2022-08-29T21:07:21.327Z,36.57
2022-08-29T21:09:47.899Z,36.51
2022-08-29T21:12:15.307Z,35.63
2022-08-29T21:14:41.799Z,35.09
2022-08-29T21:17:08.670Z,35.29
2022-08-29T21:19:36.045Z,35.87
2022-08-29T21:22:07.383Z,36.38
2022-08-29T21:24:37.889Z,36.12
2022-08-29T21:30:20.363Z,37.55
2022-08-29T21:32:47.639Z,37.79
2022-08-29T21:35:14.473Z,37.72
2022-08-29T21:37:41.828Z,37.38
2022-08-29T21:40:10.447Z,36.81
2022-08-29T21:42:37.548Z,37.34
2022-08-29T21:45:04.161Z,36.89
2022-08-29T21:50:15.818Z,36.18
2022-08-29T21:52:44.900Z,36.10
2022-08-29T21:55:12.582Z,36.30
2022-08-29T21:57:39.458Z,36.59
2022-08-29T22:00:06.374Z,36.75
2022-08-29T22:02:33.076Z,36.13
2022-08-29T22:04:59.743Z,36.17
2022-08-29T22:07:26.328Z,36.45
2022-08-29T22:09:54.649Z,37.15
2022-08-29T22:12:21.452Z,36.96
2022-08-29T22:14:47.957Z,37.60
2022-08-29T22:17:17.041Z,38.34
2022-08-29T22:19:43.961Z,38.72
2022-08-29T22:22:10.779Z,38.95
2022-08-29T22:24:37.611Z,39.06
2022-08-29T22:27:04.115Z,39.28
2022-08-29T22:29:32.363Z,39.42
2022-08-29T22:31:58.992Z,39.32
2022-08-29T22:34:26.608Z,38.91
2022-08-29T22:36:53.971Z,38.84
2022-08-29T22:39:20.432Z,39.33
2022-08-29T22:41:48.283Z,38.72
2022-08-29T22:47:02.202Z,38.88
2022-08-29T22:49:33.146Z,39.86
2022-08-29T22:52:01.144Z,40.84
2022-08-29T22:54:27.958Z,40.74
2022-08-29T22:56:55.255Z,40.35
2022-08-29T22:59:22.552Z,40.53
2022-08-29T23:01:49.419Z,41.28
2022-08-29T23:04:16.312Z,40.96
2022-08-29T23:06:43.620Z,41.11
2022-08-29T23:09:10.476Z,40.89
2022-08-29T23:11:37.383Z,40.15
2022-08-29T23:14:04.704Z,40.50
2022-08-29T23:16:33.387Z,39.38
2022-08-29T23:19:00.093Z,38.67
2022-08-29T23:21:26.927Z,40.03
2022-08-29T23:23:54.931Z,40.86
2022-08-29T23:26:21.702Z,41.47
2022-08-29T23:28:49.972Z,41.07
2022-08-29T23:31:16.800Z,42.04
2022-08-29T23:33:43.469Z,42.16
2022-08-29T23:36:09.957Z,42.31
2022-08-29T23:38:36.854Z,41.99
2022-08-29T23:41:03.809Z,42.24
2022-08-29T23:43:30.433Z,42.10
2022-08-29T23:46:03.769Z,42.38
2022-08-29T23:48:30.311Z,42.32
2022-08-29T23:50:58.044Z,41.73
2022-08-29T23:53:25.361Z,41.59
2022-08-29T23:55:51.987Z,41.71
2022-08-29T23:58:18.575Z,42.10
